Time;durP1;ratioP1;P1;durP2;ratioP2;P2;SDS_P1;SDS_P2;PMS_P1;PMS_P2;Temp;Humidity;BMP_temperature;BMP_pressure;BME280_temperature;BME280_humidity;BME280_pressure;Samples;Min_cycle;Max_cycle;Signal;HPM_P1;HPM_P2
2022/11/10 09:17:40;;;;;;;7.07;4.67;;;;;;;10.28;100.00;99905.00;5108869;28;21019;-76
2022/11/10 09:20:28;;;;;;;8.23;4.30;;;;;;;10.87;100.00;99892.63;5108206;28;38872;-76
2022/11/10 09:23:16;;;;;;;6.50;3.80;;;;;;;11.49;100.00;99903.69;5108233;28;41214;-78
2022/11/10 09:26:05;;;;;;;8.30;3.57;;;;;;;11.92;100.00;99917.47;5107187;28;42521;-77
2022/11/10 09:28:51;;;;;;;6.70;3.73;;;;;;;12.37;100.00;99932.81;5107857;28;40858;-76
2022/11/10 09:31:37;;;;;;;9.50;3.37;;;;;;;12.77;99.99;99941.31;5108102;28;39954;-80
2022/11/10 09:34:25;;;;;;;4.90;3.30;;;;;;;13.05;95.06;99938.03;5107481;28;42417;-78
2022/11/10 09:37:12;;;;;;;4.60;2.80;;;;;;;13.25;92.96;99951.94;5108928;28;42669;-76
2022/11/10 09:39:58;;;;;;;7.83;3.60;;;;;;;13.48;90.70;99960.44;5106084;28;42065;-79
2022/11/10 09:42:46;;;;;;;5.47;3.27;;;;;;;13.66;88.71;99964.72;5108129;28;38919;-76
2022/11/10 09:45:35;;;;;;;6.37;2.67;;;;;;;13.77;88.96;99964.97;5106310;28;41574;-76
2022/11/10 09:48:25;;;;;;;6.07;3.10;;;;;;;13.84;87.54;99966.34;5107292;28;43918;-77
2022/11/10 09:51:19;;;;;;;3.77;2.73;;;;;;;14.06;86.03;99959.75;5107399;28;42482;-75
2022/11/10 09:54:21;;;;;;;6.53;3.20;;;;;;;14.41;85.83;99979.84;5107540;28;40004;-77
2022/11/10 09:57:12;;;;;;;5.10;2.60;;;;;;;14.90;84.42;99984.81;5108190;28;41711;-75
2022/11/10 09:59:59;;;;;;;4.77;2.33;;;;;;;15.56;82.36;99962.84;5107684;28;42145;-75
2022/11/10 10:02:50;;;;;;;4.57;2.40;;;;;;;16.48;76.38;99987.75;5105503;28;42072;-77
2022/11/10 10:05:51;;;;;;;3.87;2.13;;;;;;;17.86;72.57;99985.00;5107139;28;38937;-76
2022/11/10 10:08:51;;;;;;;2.53;1.93;;;;;;;20.36;64.47;100000.84;5105251;28;43128;-77
2022/11/10 10:11:48;;;;;;;5.40;2.50;;;;;;;22.95;54.37;100037.66;5107207;28;42018;-77
2022/11/10 10:14:51;;;;;;;5.03;2.00;;;;;;;25.18;50.27;100036.03;5107323;28;41226;-78
2022/11/10 10:17:47;;;;;;;4.67;2.03;;;;;;;26.76;45.57;100037.88;5107111;28;39566;-80
2022/11/10 10:20:45;;;;;;;4.60;1.90;;;;;;;27.91;41.64;100065.69;5105687;28;41690;-79
2022/11/10 10:23:35;;;;;;;5.70;2.10;;;;;;;28.05;40.51;100071.22;5107008;28;43110;-81
2022/11/10 10:26:27;;;;;;;8.13;2.40;;;;;;;28.58;37.70;100085.88;5107012;28;43118;-82
2022/11/10 10:29:19;;;;;;;4.47;2.10;;;;;;;29.99;37.04;100082.28;5093045;28;39447;-81
2022/11/10 10:32:11;;;;;;;4.03;2.30;;;;;;;29.02;36.47;100080.63;5093554;28;40697;-80
2022/11/10 10:34:57;;;;;;;3.63;1.70;;;;;;;29.28;37.00;100078.31;5091152;28;43940;-81
2022/11/10 10:37:46;;;;;;;3.00;1.73;;;;;;;27.62;37.51;100088.94;5091113;28;41925;-83
2022/11/10 10:40:32;;;;;;;3.70;1.80;;;;;;;27.22;37.83;100086.28;5093834;28;40900;-82
2022/11/10 10:43:19;;;;;;;3.43;1.87;;;;;;;28.15;37.30;100080.00;5092806;28;40781;-82
2022/11/10 10:46:08;;;;;;;6.03;1.70;;;;;;;26.84;38.08;100073.19;5092689;28;42918;-83
2022/11/10 10:49:14;;;;;;;5.07;1.70;;;;;;;26.34;39.56;100057.03;5092897;28;41301;-82
2022/11/10 10:52:06;;;;;;;3.80;1.90;;;;;;;29.38;35.31;100090.84;5094905;28;40694;-82
2022/11/10 10:55:28;;;;;;;5.13;2.20;;;;;;;29.78;35.15;100101.31;5093352;28;40564;-83
2022/11/10 10:58:36;;;;;;;5.90;1.53;;;;;;;28.56;36.48;100077.06;5094508;28;42553;-81
2022/11/10 11:01:30;;;;;;;5.90;2.00;;;;;;;27.45;37.40;100077.19;5094208;28;42732;-81
2022/11/10 11:04:39;;;;;;;4.70;1.90;;;;;;;27.91;37.80;100066.53;5091011;28;40048;-84
2022/11/10 11:07:26;;;;;;;3.63;1.80;;;;;;;29.49;35.00;100080.31;5085382;28;42525;-83
2022/11/10 11:10:19;;;;;;;6.90;2.33;;;;;;;30.84;33.61;100097.09;5090803;28;43703;-79
2022/11/10 11:13:20;;;;;;;3.00;1.70;;;;;;;32.64;30.54;100112.53;5091067;28;41971;-81
2022/11/10 11:16:11;;;;;;;3.15;1.60;;;;;;;33.85;28.73;100127.78;5092639;28;39224;-80
2022/11/10 11:18:57;;;;;;;3.25;1.92;;;;;;;34.47;27.62;100121.63;5092346;28;43058;-82
2022/11/10 11:22:07;;;;;;;3.00;1.45;;;;;;;33.56;27.47;100104.34;5092739;28;42726;-81
2022/11/10 11:25:02;;;;;;;3.57;1.30;;;;;;;31.36;29.85;100088.50;5090602;28;43217;-81
2022/11/10 11:27:58;;;;;;;3.50;1.70;;;;;;;32.05;29.46;100104.94;5093960;28;39986;-81
2022/11/10 11:30:59;;;;;;;3.10;1.50;;;;;;;30.32;31.18;100093.59;5092321;28;40596;-82
2022/11/10 11:33:56;;;;;;;4.10;1.67;;;;;;;29.55;32.60;100076.81;5092718;28;42591;-80
2022/11/10 11:36:52;;;;;;;3.70;1.60;;;;;;;28.51;32.79;100071.28;5092450;28;41510;-80
2022/11/10 11:39:48;;;;;;;2.03;1.50;;;;;;;27.11;34.07;100076.59;5092850;28;40542;-84
2022/11/10 11:42:52;;;;;;;4.10;1.70;;;;;;;25.70;36.18;100047.69;5092402;28;41628;-79
2022/11/10 11:45:46;;;;;;;4.80;1.60;;;;;;;24.85;37.73;100042.25;5092135;28;44460;-82
2022/11/10 11:48:46;;;;;;;4.57;1.40;;;;;;;24.91;37.14;100031.59;5092329;28;40896;-79
2022/11/10 11:51:43;;;;;;;3.73;1.70;;;;;;;25.93;36.08;100031.66;5092162;28;39957;-81
2022/11/10 11:54:42;;;;;;;5.90;1.43;;;;;;;26.36;36.45;100037.84;5093017;28;41813;-80
2022/11/10 11:57:39;;;;;;;2.60;1.70;;;;;;;28.78;33.77;100051.69;5091650;28;41598;-80
2022/11/10 12:00:25;;;;;;;6.90;1.90;;;;;;;31.98;29.27;100090.38;5091366;28;42750;-81
2022/11/10 12:07:43;;;;;;;2.63;1.35;;;;;;;34.20;26.97;100106.28;5093175;28;42663;-80
2022/11/10 12:10:41;;;;;;;3.65;1.45;;;;;;;35.77;25.12;100122.72;5092803;28;42663;-82
2022/11/10 12:13:37;;;;;;;3.22;1.75;;;;;;;36.85;23.97;100124.72;5090332;28;42996;-81
2022/11/10 12:16:26;;;;;;;2.47;1.50;;;;;;;37.01;23.32;100126.81;5091436;28;39020;-81
2022/11/10 12:19:21;;;;;;;2.75;1.20;;;;;;;37.33;23.19;100117.19;5090204;28;41719;-81
2022/11/10 12:22:17;;;;;;;4.20;1.52;;;;;;;37.93;23.11;100111.38;5091906;28;43364;-82
2022/11/10 12:25:16;;;;;;;3.92;1.27;;;;;;;38.76;21.52;100130.25;5093149;28;43171;-80
2022/11/10 12:28:11;;;;;;;4.45;1.23;;;;;;;38.56;21.32;100135.41;5091923;28;40251;-80
2022/11/10 12:31:02;;;;;;;2.33;1.45;;;;;;;37.41;21.71;100135.31;5091347;28;43630;-81
2022/11/10 12:33:53;;;;;;;4.93;1.50;;;;;;;36.77;22.42;100134.22;5093179;28;42858;-81
2022/11/10 12:36:41;;;;;;;3.78;1.70;;;;;;;37.02;22.00;100132.13;5091433;28;42099;-82
2022/11/10 12:39:38;;;;;;;2.92;1.38;;;;;;;35.75;23.07;100119.34;5092862;28;40717;-80
2022/11/10 12:42:29;;;;;;;3.20;1.60;;;;;;;33.85;24.98;100108.53;5091228;28;43203;-81
2022/11/10 12:45:21;;;;;;;4.07;2.00;;;;;;;31.90;26.83;100105.06;5092437;28;43572;-80
2022/11/10 12:48:11;;;;;;;3.47;1.60;;;;;;;32.30;26.43;100099.78;5092355;28;42211;-81
2022/11/10 12:51:05;;;;;;;3.00;1.50;;;;;;;30.99;27.44;100067.78;5092006;28;41462;-80
2022/11/10 12:53:51;;;;;;;2.97;1.60;;;;;;;29.19;30.03;100076.66;5092243;28;40947;-81
2022/11/10 12:56:43;;;;;;;3.57;1.90;;;;;;;28.16;31.54;100072.69;5092049;28;42816;-80
2022/11/10 12:59:34;;;;;;;4.90;1.90;;;;;;;27.33;32.40;100056.81;5092251;28;42021;-79
2022/11/10 13:02:27;;;;;;;3.57;1.67;;;;;;;26.23;33.86;100046.47;5091364;28;41569;-80
2022/11/10 13:05:36;;;;;;;4.30;1.40;;;;;;;25.15;35.65;100036.34;5090719;28;42529;-78
2022/11/10 13:08:38;;;;;;;5.47;1.80;;;;;;;24.22;37.16;100031.50;5092681;28;43065;-82
2022/11/10 13:11:28;;;;;;;4.07;1.50;;;;;;;23.50;38.77;100037.72;5090678;28;44154;-81
2022/11/10 13:14:23;;;;;;;3.53;1.40;;;;;;;22.93;39.72;100039.66;5091288;28;40204;-79
2022/11/10 13:17:43;;;;;;;5.70;1.53;;;;;;;22.46;41.38;100031.44;5091438;28;42761;-80
2022/11/10 13:20:52;;;;;;;4.77;1.50;;;;;;;21.88;42.96;100029.69;5092001;28;42555;-78
2022/11/10 13:24:18;;;;;;;4.40;1.57;;;;;;;21.41;43.90;100022.16;5091055;28;42919;-80
2022/11/10 13:27:10;;;;;;;4.37;1.40;;;;;;;21.03;44.35;100021.94;5090696;28;40231;-80
2022/11/10 13:29:58;;;;;;;3.80;1.83;;;;;;;20.80;45.18;100018.56;5088917;28;41803;-79
2022/11/10 13:32:45;;;;;;;4.93;1.57;;;;;;;20.74;45.95;100011.03;5091248;28;42292;-81
2022/11/10 13:35:52;;;;;;;3.47;1.57;;;;;;;20.82;45.78;100003.13;5089812;28;42243;-82
2022/11/10 13:38:40;;;;;;;1.87;1.40;;;;;;;21.15;45.47;100005.56;5090909;28;40345;-83
2022/11/10 13:41:27;;;;;;;6.83;2.10;;;;;;;20.90;45.53;100006.00;5090613;28;42798;-79
2022/11/10 13:44:33;;;;;;;6.37;1.70;;;;;;;21.55;44.95;100018.22;5090851;28;42859;-81
2022/11/10 13:47:49;;;;;;;2.27;1.30;;;;;;;22.44;43.44;100028.03;5092144;28;42157;-79
2022/11/10 13:50:49;;;;;;;2.43;1.30;;;;;;;22.84;42.51;100051.34;5085600;28;39642;-82
2022/11/10 13:53:46;;;;;;;5.17;1.80;;;;;;;23.84;41.41;100055.13;5090762;28;41932;-81
2022/11/10 13:56:52;;;;;;;3.70;1.50;;;;;;;24.60;39.94;100060.16;5090703;28;43359;-80
2022/11/10 13:59:49;;;;;;;3.43;1.53;;;;;;;23.98;39.72;100056.47;5090918;28;41228;-82
2022/11/10 14:02:59;;;;;;;2.50;1.47;;;;;;;22.99;40.80;100058.00;5091176;28;38916;-80
2022/11/10 14:06:07;;;;;;;4.67;1.57;;;;;;;23.24;41.55;100065.44;5092811;28;41793;-81
2022/11/10 14:09:00;;;;;;;7.93;1.57;;;;;;;23.67;40.82;100055.91;5093553;28;41382;-79
2022/11/10 14:11:51;;;;;;;5.20;1.90;;;;;;;23.66;40.99;100075.00;5093565;28;41669;-81
2022/11/10 14:14:50;;;;;;;3.17;1.60;;;;;;;23.90;40.24;100084.25;5095321;28;39901;-80
2022/11/10 14:17:41;;;;;;;5.53;1.50;;;;;;;24.10;39.96;100076.03;5095006;28;41799;-79
2022/11/10 14:20:34;;;;;;;2.27;1.20;;;;;;;24.53;39.93;100081.59;5094727;28;42758;-79
2022/11/10 14:23:25;;;;;;;3.10;1.47;;;;;;;24.89;39.70;100076.97;5093829;28;41198;-81
2022/11/10 14:26:23;;;;;;;3.17;1.20;;;;;;;24.28;39.51;100080.50;5093946;28;39133;-80
2022/11/10 14:29:32;;;;;;;2.73;1.50;;;;;;;23.43;41.50;100090.72;5093354;28;42075;-80
2022/11/10 14:32:21;;;;;;;3.53;1.53;;;;;;;22.67;41.50;100087.13;5093007;28;43164;-82
2022/11/10 14:35:19;;;;;;;3.63;1.40;;;;;;;21.94;42.55;100088.47;5091780;28;43469;-80
2022/11/10 14:38:18;;;;;;;3.50;1.10;;;;;;;21.23;43.97;100060.66;5093786;28;39322;-80
2022/11/10 14:41:06;;;;;;;4.47;1.87;;;;;;;20.77;44.91;100070.00;5092723;28;42327;-78
2022/11/10 14:44:01;;;;;;;4.47;1.70;;;;;;;20.29;45.17;100069.56;5093162;28;42117;-82
2022/11/10 14:46:47;;;;;;;3.23;1.40;;;;;;;19.88;46.51;100076.53;5092804;28;40858;-78
2022/11/10 14:49:33;;;;;;;4.50;1.50;;;;;;;19.49;46.73;100072.56;5092971;28;38927;-78
2022/11/10 14:52:21;;;;;;;6.00;2.10;;;;;;;19.11;47.32;100074.69;5094007;28;42558;-83
2022/11/10 14:58:25;;;;;;;2.77;1.27;;;;;;;18.40;49.21;100073.00;5093383;28;42172;-82
2022/11/10 15:01:24;;;;;;;4.83;1.30;;;;;;;18.10;49.50;100066.28;5093368;28;40267;-81
2022/11/10 15:04:15;;;;;;;3.17;1.53;;;;;;;17.85;50.21;100063.69;5092964;28;41681;-79
2022/11/10 15:07:01;;;;;;;6.83;1.80;;;;;;;17.60;50.92;100072.63;5093582;28;42764;-81
2022/11/10 15:10:07;;;;;;;5.67;1.60;;;;;;;17.31;51.18;100055.97;5092688;28;41815;-82
2022/11/10 15:13:03;;;;;;;6.10;1.77;;;;;;;17.10;52.09;100062.84;5092896;28;40041;-81
2022/11/10 15:15:52;;;;;;;2.00;1.27;;;;;;;16.79;52.20;100042.72;5091105;28;41819;-82
2022/11/10 15:18:38;;;;;;;2.10;1.17;;;;;;;16.70;52.49;100056.72;5090857;28;42753;-81
2022/11/10 15:21:29;;;;;;;4.33;1.57;;;;;;;16.49;53.03;100051.84;5092435;28;42491;-79
2022/11/10 15:24:15;;;;;;;4.80;1.50;;;;;;;16.31;53.25;100060.25;5094073;28;40166;-78
2022/11/10 15:27:01;;;;;;;4.77;2.13;;;;;;;16.11;54.67;100062.44;5092655;28;42563;-81
2022/11/10 15:29:51;;;;;;;7.17;1.97;;;;;;;15.90;55.77;100057.63;5092876;28;43478;-81
2022/11/10 15:32:44;;;;;;;5.63;1.80;;;;;;;15.62;55.92;100045.22;5092876;28;42386;-81
2022/11/10 15:35:53;;;;;;;3.73;1.77;;;;;;;15.50;56.33;100053.97;5090822;28;41350;-85
2022/11/10 15:38:40;;;;;;;4.10;1.70;;;;;;;15.39;56.32;100068.00;5092736;28;41970;-83
2022/11/10 15:41:26;;;;;;;4.37;1.67;;;;;;;15.17;57.29;100063.16;5092769;28;43095;-84
2022/11/10 15:44:32;;;;;;;4.43;1.60;;;;;;;14.98;57.29;100070.56;5093735;28;42204;-83
2022/11/10 15:47:19;;;;;;;3.03;1.90;;;;;;;14.89;57.43;100076.47;5126415;27;39262;-84
2022/11/10 15:50:14;;;;;;;2.73;1.50;;;;;;;14.50;57.95;100050.38;5133938;27;41858;-83
2022/11/10 15:53:21;;;;;;;2.83;1.87;;;;;;;14.34;58.35;100042.44;5133581;27;43243;-84
2022/11/10 15:56:28;;;;;;;4.37;1.90;;;;;;;14.11;58.50;100038.41;5134100;27;42495;-83
2022/11/10 15:59:34;;;;;;;3.23;1.60;;;;;;;14.21;58.55;100090.25;5133163;27;39422;-84
2022/11/10 16:09:44;;;;;;;2.13;1.40;;;;;;;13.60;60.60;100079.50;5132596;27;41447;-82
2022/11/10 16:41:36;;;;;;;4.13;2.20;;;;;;;12.56;65.41;100124.06;5152656;27;42878;-83
2022/11/10 16:44:24;;;;;;;4.93;2.40;;;;;;;12.33;65.31;100098.63;5153953;27;38604;-83
2022/11/10 16:47:17;;;;;;;3.33;2.10;;;;;;;12.40;65.33;100126.59;5153385;27;41394;-83
2022/11/10 16:50:26;;;;;;;7.47;3.17;;;;;;;12.23;65.69;100100.03;5153532;27;43799;-83
2022/11/10 16:57:02;;;;;;;4.83;3.37;;;;;;;12.22;67.06;100120.41;5153552;27;39224;-83
2022/11/10 17:03:31;;;;;;;6.97;3.73;;;;;;;12.20;68.27;100147.97;5153066;27;42123;-82
2022/11/10 17:27:18;;;;;;;6.87;2.30;;;;;;;11.75;71.34;100180.16;5133023;27;40784;-84
2022/11/10 17:30:18;;;;;;;3.90;2.40;;;;;;;11.69;70.79;100194.59;5175605;27;43313;-84
2022/11/10 17:33:04;;;;;;;4.30;2.47;;;;;;;11.59;70.50;100195.09;5177397;27;42849;-84
2022/11/10 17:35:56;;;;;;;4.13;2.57;;;;;;;11.49;70.72;100184.91;5177152;27;42192;-83
2022/11/10 17:38:43;;;;;;;2.60;2.10;;;;;;;11.56;70.46;100212.00;5151237;27;39754;-83
2022/11/10 17:41:50;;;;;;;4.93;2.77;;;;;;;11.34;70.94;100168.81;5139438;27;41864;-84
2022/11/10 17:44:36;;;;;;;3.67;2.43;;;;;;;11.46;71.14;100200.09;5139176;27;42261;-84
2022/11/10 17:50:52;;;;;;;5.27;2.37;;;;;;;11.34;71.35;100208.59;5178217;27;40251;-83
2022/11/10 17:53:39;;;;;;;4.90;2.33;;;;;;;11.04;71.02;100174.53;5180245;27;43133;-83
2022/11/10 18:54:20;;;;;;;6.87;5.27;;;;;;;10.27;76.60;100226.31;5172979;27;41362;-80
2022/11/10 18:57:07;;;;;;;7.90;4.77;;;;;;;10.25;76.46;100228.16;5175419;27;40077;-79
2022/11/10 18:59:53;;;;;;;6.93;4.70;;;;;;;10.15;76.62;100216.16;5157936;27;42010;-80
2022/11/10 19:02:39;;;;;;;5.30;4.57;;;;;;;10.22;76.39;100244.16;5180203;27;42903;-80
2022/11/10 19:05:49;;;;;;;5.50;3.87;;;;;;;10.09;75.66;100234.94;5178669;27;41443;-78
2022/11/10 19:08:38;;;;;;;7.03;3.80;;;;;;;10.09;75.48;100243.75;5194707;27;39993;-79
2022/11/10 19:11:25;;;;;;;4.10;3.70;;;;;;;10.06;75.03;100258.88;5178866;27;43536;-79
2022/11/10 19:14:12;;;;;;;5.00;3.63;;;;;;;9.98;75.01;100253.88;5157853;27;41696;-79
2022/11/10 19:16:58;;;;;;;6.17;4.47;;;;;;;9.95;75.25;100261.06;5161558;27;41870;-78
2022/11/10 19:19:44;;;;;;;4.57;4.00;;;;;;;9.78;74.87;100251.09;5196112;27;40034;-80
2022/11/10 19:22:30;;;;;;;4.60;4.00;;;;;;;9.84;74.54;100268.53;5178735;27;40700;-78
2022/11/10 19:25:18;;;;;;;5.17;3.80;;;;;;;9.78;74.88;100260.81;5178719;27;41835;-79
2022/11/10 19:28:04;;;;;;;6.00;4.70;;;;;;;9.64;74.58;100262.19;5178554;27;41283;-81
2022/11/10 19:30:51;;;;;;;8.83;5.57;;;;;;;9.58;74.53;100251.84;5178864;27;40011;-79
2022/11/10 19:33:39;;;;;;;6.00;5.23;;;;;;;9.55;74.78;100265.16;5177871;27;40907;-80
2022/11/10 19:36:27;;;;;;;8.00;5.73;;;;;;;9.34;74.65;100252.72;5178820;27;43965;-79
2022/11/10 19:39:14;;;;;;;8.10;5.27;;;;;;;9.44;74.51;100280.56;5195298;27;42149;-80
2022/11/10 19:42:01;;;;;;;4.90;4.50;;;;;;;9.39;74.67;100285.16;5177672;27;39438;-80
2022/11/10 19:44:47;;;;;;;9.87;5.97;;;;;;;9.35;74.80;100286.16;5178117;27;40564;-79
2022/11/10 19:47:33;;;;;;;7.40;5.13;;;;;;;9.31;74.80;100295.97;5177669;27;41993;-80
2022/11/10 19:50:19;;;;;;;6.90;5.77;;;;;;;9.27;74.72;100304.09;5194305;27;42309;-78
2022/11/10 19:53:06;;;;;;;8.03;5.67;;;;;;;9.16;74.69;100285.06;5177969;27;39933;-79
2022/11/10 19:55:52;;;;;;;8.13;5.60;;;;;;;9.16;74.66;100291.22;5178274;27;40471;-78
2022/11/10 19:58:41;;;;;;;6.87;4.70;;;;;;;9.10;74.71;100291.44;5178176;27;42055;-78
2022/11/10 20:01:32;;;;;;;5.80;4.90;;;;;;;9.06;74.56;100295.06;5177224;27;41110;-78
2022/11/10 20:04:18;;;;;;;6.97;4.90;;;;;;;8.99;75.13;100293.56;5178185;27;40186;-78
2022/11/10 20:10:09;;;;;;;6.27;4.13;;;;;;;8.95;74.71;100298.09;5194929;27;43439;-78
2022/11/10 20:12:55;;;;;;;5.03;4.47;;;;;;;8.93;74.79;100299.91;5172929;27;41110;-78
2022/11/10 20:15:44;;;;;;;7.17;4.20;;;;;;;8.87;74.75;100310.69;5176540;27;38592;-78
2022/11/10 20:18:30;;;;;;;4.83;4.00;;;;;;;8.77;74.92;100290.78;5190580;27;41309;-79
2022/11/10 20:21:21;;;;;;;4.47;3.97;;;;;;;8.87;75.33;100321.25;5188288;27;42691;-79
2022/11/10 20:24:07;;;;;;;7.80;4.63;;;;;;;8.80;76.44;100298.56;5187844;27;43178;-79
2022/11/10 20:26:53;;;;;;;5.60;4.83;;;;;;;8.73;75.74;100291.78;5163923;27;38564;-79
2022/11/10 20:29:41;;;;;;;6.60;5.17;;;;;;;8.73;75.72;100289.13;5176416;27;43049;-80
2022/11/10 20:32:28;;;;;;;5.93;5.00;;;;;;;8.80;75.73;100313.56;5169488;27;42034;-80
2022/11/10 20:35:15;;;;;;;6.60;4.93;;;;;;;8.77;75.72;100319.81;5189523;27;42364;-80
2022/11/10 20:38:01;;;;;;;8.37;4.63;;;;;;;8.74;76.08;100317.28;5173860;27;41640;-81
2022/11/10 20:40:47;;;;;;;5.43;4.40;;;;;;;8.70;76.06;100326.19;5192575;27;41592;-80
2022/11/10 20:43:34;;;;;;;5.13;4.63;;;;;;;8.66;75.96;100324.56;5176187;27;42120;-80
2022/11/10 20:46:22;;;;;;;7.27;5.10;;;;;;;8.66;75.80;100316.63;5186650;27;43093;-80
2022/11/10 20:49:10;;;;;;;7.33;4.77;;;;;;;8.62;75.67;100320.31;5174413;27;39123;-79
2022/11/10 20:51:58;;;;;;;5.17;4.40;;;;;;;8.58;76.05;100313.38;5172790;27;40757;-80
2022/11/10 20:54:44;;;;;;;7.20;5.00;;;;;;;8.55;76.00;100313.47;5193763;27;43742;-80
2022/11/10 20:57:31;;;;;;;9.90;5.43;;;;;;;8.51;76.15;100315.34;5169273;27;40987;-80
2022/11/10 21:00:17;;;;;;;7.47;5.63;;;;;;;8.48;76.19;100314.56;5176012;27;39200;-80
2022/11/10 21:03:04;;;;;;;7.93;4.90;;;;;;;8.45;76.17;100304.09;5176046;27;44508;-79
2022/11/10 21:06:02;;;;;;;6.53;4.50;;;;;;;8.40;76.26;100298.97;5167544;27;41891;-78
2022/11/10 21:08:48;;;;;;;6.47;4.80;;;;;;;8.28;76.00;100284.31;5171545;27;41871;-80
2022/11/10 21:14:39;;;;;;;5.80;4.47;;;;;;;8.27;76.02;100298.47;5169451;27;40754;-79
2022/11/10 21:17:25;;;;;;;7.10;5.20;;;;;;;8.18;75.86;100296.06;5191484;27;42872;-80
2022/11/10 21:20:12;;;;;;;5.90;4.60;;;;;;;8.19;75.88;100307.50;5174915;27;42567;-79
2022/11/10 21:23:00;;;;;;;6.47;4.70;;;;;;;8.12;75.76;100314.75;5189337;27;40509;-79
2022/11/10 21:25:52;;;;;;;6.23;5.30;;;;;;;8.08;75.81;100318.38;5175668;27;41009;-79
2022/11/10 21:28:38;;;;;;;5.93;5.33;;;;;;;8.05;76.76;100313.16;5168610;27;43464;-80
2022/11/10 21:31:24;;;;;;;7.27;5.80;;;;;;;7.91;76.91;100305.66;5168396;27;41067;-79
2022/11/10 21:34:10;;;;;;;9.20;6.23;;;;;;;7.97;76.96;100331.00;5185579;27;39845;-79
2022/11/10 21:36:57;;;;;;;7.20;5.20;;;;;;;7.93;76.43;100321.44;5189836;27;42256;-79
2022/11/10 21:39:44;;;;;;;6.60;5.43;;;;;;;7.91;76.40;100331.19;5172261;27;43059;-79
2022/11/10 21:42:30;;;;;;;6.30;5.30;;;;;;;7.87;76.38;100335.69;5186220;27;42373;-80
2022/11/10 21:45:16;;;;;;;6.97;5.20;;;;;;;7.85;76.52;100336.63;5173441;27;39003;-79
2022/11/10 21:48:03;;;;;;;6.87;5.43;;;;;;;7.82;76.51;100339.34;5188976;27;41923;-80
2022/11/10 21:50:50;;;;;;;7.10;5.90;;;;;;;7.77;76.66;100338.63;5172099;27;41519;-79
2022/11/10 21:53:37;;;;;;;7.80;5.83;;;;;;;7.60;76.57;100314.47;5167755;27;42482;-79
2022/11/10 21:56:25;;;;;;;8.93;6.30;;;;;;;7.69;76.49;100345.84;5184905;27;39959;-79
2022/11/10 21:59:11;;;;;;;7.07;5.83;;;;;;;7.67;76.64;100347.66;5184977;27;42647;-79
2022/11/10 22:01:58;;;;;;;9.57;6.10;;;;;;;7.59;76.37;100345.25;5168284;27;42073;-80
2022/11/10 22:04:44;;;;;;;7.10;6.03;;;;;;;7.58;76.53;100344.38;5190114;27;43133;-79
2022/11/10 22:07:31;;;;;;;8.30;5.80;;;;;;;7.55;76.48;100341.81;5169050;27;38908;-80
2022/11/10 22:19:37;;;;;;;6.83;6.13;;;;;;;7.43;76.96;100352.66;5167827;27;39938;-80
2022/11/10 22:22:23;;;;;;;7.60;5.47;;;;;;;7.36;76.63;100344.97;5171794;27;41964;-78
2022/11/10 22:25:09;;;;;;;6.47;5.47;;;;;;;7.36;76.84;100345.84;5171803;27;43040;-78
2022/11/10 22:27:56;;;;;;;7.23;5.77;;;;;;;7.32;76.84;100344.19;5175133;27;42460;-79
2022/11/10 22:30:44;;;;;;;7.13;5.83;;;;;;;7.29;76.83;100336.38;5192635;27;40372;-78
2022/11/10 22:33:33;;;;;;;5.70;5.10;;;;;;;7.25;76.79;100334.72;5179119;27;41397;-79
2022/11/10 22:36:21;;;;;;;9.70;6.33;;;;;;;7.20;76.92;100337.44;5196700;27;42910;-78
2022/11/10 22:39:09;;;;;;;8.57;5.77;;;;;;;7.08;77.22;100316.69;5189244;27;42778;-78
2022/11/10 22:45:01;;;;;;;8.43;6.27;;;;;;;7.02;77.39;100326.53;5187446;27;41910;-79
2022/11/10 22:50:56;;;;;;;8.17;6.10;;;;;;;7.09;77.15;100346.53;5177878;27;43450;-79
2022/11/10 22:53:42;;;;;;;7.97;6.53;;;;;;;6.93;77.29;100321.44;5173758;27;38956;-81
2022/11/10 22:56:30;;;;;;;7.63;6.07;;;;;;;7.00;77.45;100328.31;5177717;27;42051;-78
